WETTERDATEN

GESTERN
Time Temp. Taup. r.Fe. Windrich Windstärke Windböe Druck 1h Prec. 24h Prec.
00:03 -2 -2.9 93 270 0.3 0.8 1001.1 0.0000 0.0000
00:23 -2.1 -3 93 240 0.3 0.8 1001.5 0.0000 0.0000
00:33 -2.1 -3.1 92 225 0.3 0.6 1001.3 0.0000 0.0000
00:43 -2.1 -3.1 92 240 0.3 0.8 1001.5 0.0000 0.0000
00:53 -2.1 -3.1 92 123 0.3 0.6 1001.5 0.0000 0.0000
01:03 -2.2 -3.1 93 246 0.6 1.4 1001.8 0.0000 0.0000
01:13 -2.2 -3.1 93 270 0.3 0.8 1002.2 0.0000 0.0000
01:23 -2.2 -3.1 93 225 0.3 0.6 1002.3 0.0000 0.0000
01:33 -2.3 -3.2 93 149 0.3 0.8 1002.2 0.0000 0.0000
01:43 -2.4 -3.3 93 90 0.6 2.2 1001.3 0.0000 0.0000
01:54 -2.4 -3.3 93 90 0.3 1.4 1000.9 0.0000 0.0000
02:04 -2.4 -3.4 92 135 0.3 0.8 1000.9 0.0000 0.0000
02:13 -2.4 -3.4 92 253 0.6 1.4 1000.7 0.0000 0.0000
02:24 -2.4 -3.4 92 191 0.3 1.4 1000.1 0.0000 0.0000
02:34 -2.4 -3.4 92 270 0.6 1.7 1000.9 0.0000 0.0000
02:44 -2.4 -3.4 92 270 0.3 0.8 1001.3 0.0000 0.0000
02:53 -2.4 -3.4 92 270 0.3 0.8 1001.7 0.0000 0.0000
03:04 -2.3 -3.3 92 135 0.3 1.4 1002.1 0.0000 0.0000
03:14 -2.3 -3.3 92 206 0.3 0.8 1002.6 0.0000 0.0000
03:24 -2.4 -3.4 92 124 0.3 0.8 1002.6 0.0000 0.0000
03:34 -2.4 -3.4 92 229 0.3 0.6 1002.9 0.0000 0.0000
03:44 -2.4 -3.4 92 235 0.3 0.6 1002.6 0.0000 0.0000
03:54 -2.4 -3.4 92 90 0.3 1.4 1002.3 0.0000 0.0000
04:04 -2.4 -3.4 92 90 0.3 1.4 1001.7 0.0000 0.0000
04:15 -2.2 -3.3 91 90 0.6 1.9 1001.3 0.0000 0.0000
04:24 -2.2 -3.5 90 254 0.6 1.7 1001.4 0.0000 0.0000
04:34 -2.2 -3.5 90 270 0.3 0.8 1001.8 0.0000 0.0000
04:45 -2.1 -3.4 90 225 0.3 0.6 1002.4 0.0000 0.0000
04:55 -2.1 -3.2 91 225 0.3 0.6 1002.6 0.0000 0.0000
05:04 -2.1 -3.2 91 141 0.3 1.4 1002.1 0.0000 0.0000
05:14 -2.1 -3.2 91 135 0.3 0.8 1001.6 0.0000 0.0000
05:25 -2 -3.1 91 135 0.3 0.8 1001.6 0.0000 0.0000
05:35 -2 -3.1 91 270 0.6 2.2 1001.8 0.0000 0.0000
05:45 -2 -3.1 91 270 0.3 0.8 1002.3 0.0000 0.0000
05:55 -2 -3.1 91 225 0.3 0.6 1002.4 0.0000 0.0000
06:05 -2.1 -3.2 91 213 0.3 0.6 1002.2 0.0000 0.0000
06:15 -2.1 -3.2 91 0 0.6 1002.1 0.0000 0.0000
06:25 -2.1 -3.1 92 225 0.3 0.8 1002.1 0.0000 0.0000
06:35 -2.1 -3.1 92 270 0.6 1.4 1002.5 0.0000 0.0000
06:45 -2.1 -3.1 92 237 0.3 0.8 1002.4 0.0000 0.0000
06:55 -2.1 -3.1 92 239 0.3 0.8 1002.3 0.0000 0.0000
07:06 -2.1 -3.1 92 209 0.3 0.6 1002.5 0.0000 0.0000
07:15 -2.1 -3.1 92 230 0.3 0.6 1002.8 0.0000 0.0000
07:35 -2 -3 92 204 0.3 0.6 1002.6 0.0000 0.0000
07:46 -2.1 -3.1 92 270 0.3 0.6 1002.8 0.0000 0.0000
07:55 -2.1 -3.1 92 270 0.6 1.7 1003 0.0000 0.0000
08:05 -2.1 -3.1 92 270 0.6 1.4 1002.9 0.0000 0.0000
08:16 -2.1 -3.1 92 234 0.3 0.6 1002.9 0.0000 0.0000
08:26 -2.1 -3.1 92 270 0.3 0.8 1003.1 0.0000 0.0000
08:36 -2.1 -3.1 92 270 0.3 0.6 1003.4 0.0000 0.0000
08:45 -2.1 -3.2 91 210 0.3 0.6 1003.8 0.0000 0.0000
08:56 -2.1 -3.1 92 270 0.3 1.4 1004.4 0.0000 0.0000
09:11 -2.1 -3.1 92 231 0.3 0.6 1004.4 0.0000 0.0000
09:21 -2 -3 92 270 0.3 0.6 1004.6 0.0000 0.0000
09:31 -2 -3 92 253 0.6 0.8 1004.6 0.0000 0.0000
09:41 -2 -3 92 225 0.3 1.4 1004.6 0.0000 0.0000
09:51 -1.9 -2.9 92 232 0.3 0.8 1004.9 0.0000 0.0000
10:02 -1.8 -2.8 92 270 0.6 1.4 1005.1 0.0000 0.0000
10:11 -1.6 -2.7 91 270 0.6 1.4 1005.3 0.0000 0.0000
10:21 -1.5 -2.6 91 219 0.3 0.6 1005.4 0.0000 0.0000
10:31 -1.4 -2.5 91 270 0.3 0.8 1005.4 0.0000 0.0000
10:42 -1.3 -2.4 91 206 0.3 0.6 1005.6 0.0000 0.0000
10:52 -1.2 -2.3 91 173 0.3 0.6 1005.9 0.0000 0.0000
11:01 -1.1 -2.2 91 239 0.3 1.4 1006 0.0000 0.0000
11:12 -1 -2.1 91 237 0.3 0.8 1005.9 0.1010 0.1000
11:22 -0.9 -2 91 236 0.3 1.4 1006.2 0.1010 0.1000
11:32 -0.8 -1.9 91 270 0.3 1.4 1006.3 0.1010 0.1000
11:42 -0.7 -1.8 91 135 0.3 0.6 1006.3 0.1010 0.1000
11:52 -0.6 -1.7 91 270 0.8 2.2 1006.8 0.2020 0.2000
12:02 -0.5 -1.8 90 161 0.3 0.8 1006.7 0.2020 0.2000
12:12 -0.3 -1.6 90 225 0.3 0.6 1007.1 0.1010 0.2000
12:22 -0.3 -1.6 90 247 0.8 1.7 1007.5 0.1010 0.2000
12:32 -0.2 -1.5 90 270 0.8 1.7 1007.6 0.1010 0.2000
12:42 0 -1.4 89 168 0.6 1.4 1007.8 0.1010 0.2000
12:52 0.1 -1.3 89 135 0.3 0.8 1008.1 0.0000 0.2000
13:03 0.3 -1.1 89 225 0.3 1.4 1008.2 0.0000 0.2000
13:12 0.7 -0.9 88 214 0.3 1.4 1008.1 0.0000 0.2000
13:22 1.1 -0.7 87 170 0.3 0.6 1008.1 0.0000 0.2000
13:33 1.4 -0.6 86 270 0.8 1.9 1008.6 0.0000 0.2000
13:43 1.8 -0.4 85 258 0.8 2.2 1008.5 0.0000 0.2000
13:52 2.1 -0.3 84 234 0.6 1.4 1009 0.0000 0.2000
14:02 2.1 -0.4 83 251 0.6 1.9 1009.2 0.0000 0.2000
14:07 2.2 -0.3 83 215 0.6 1.7 1009.4 0.3030 0.5000
14:16 2.4 -0.3 82 237 0.6 1.7 1009.6 0.8080 1.0000
14:26 2.6 -0.3 81 191 0.3 1.4 1009.7 1.3130 1.5000
14:37 2.6 -0.6 79 90 0.3 1.7 1009.9 1.5150 1.7000
14:47 2.5 -0.5 80 270 0.6 1.4 1010.4 1.5150 1.7000
14:56 2.6 -0.4 80 246 0.6 1.9 1010.6 1.5150 1.7000
15:07 2.6 -0.4 80 210 0.3 0.8 1010.7 1.0100 1.8000
15:17 2.4 -0.6 80 225 0.6 1.7 1011.2 0.7070 2.0000
15:27 2.3 -0.7 80 225 0.3 0.8 1011.1 0.8080 2.4000
15:42 2.1 -0.6 82 270 0.6 1.4 1011.4 0.9090 2.6000
15:52 1.9 -0.7 82 208 0.3 0.6 1011.6 1.1110 2.8000
16:02 1.8 -0.7 83 270 0.6 1.4 1012 1.2120 2.9000
16:12 1.7 -0.8 83 235 0.3 0.8 1011.9 1.1110 3.0000
16:23 1.6 -0.7 84 225 0.3 0.8 1012.2 0.9090 3.1000
16:32 1.5 -0.7 85 192 0.3 0.8 1012.2 0.6060 3.1000
16:42 1.4 -0.7 85 239 0.3 0.8 1012.3 0.6060 3.2000
16:53 1.3 -0.8 85 156 0.3 1.4 1012.3 0.4040 3.2000
17:03 1.2 -0.9 85 204 0.3 0.6 1012.5 0.3030 3.2000
17:12 1.1 -1 85 180 0.3 0.8 1012.7 0.3030 3.3000
17:22 1 -0.9 86 270 0.3 0.8 1012.8 0.2020 3.3000
17:33 0.9 -1 86 171 0.3 0.8 1012.8 0.2020 3.3000
17:43 0.8 -1.1 86 198 0.3 0.6 1012.7 0.1010 3.3000
17:53 0.8 -1.1 86 236 0.3 0.8 1012.7 0.2020 3.4000
18:03 0.8 -1.1 86 170 0.3 0.6 1012.8 0.2020 3.4000
18:13 0.7 -1.2 86 236 0.3 1.4 1012.8 0.1010 3.4000
18:23 0.7 -1.1 87 225 0.3 1.4 1012.8 0.1010 3.4000
18:33 0.7 -1.1 87 208 0.3 0.6 1012.9 0.1010 3.4000
18:44 0.7 -1.1 87 270 0.8 1.4 1012.9 0.1010 3.4000
18:53 0.6 -1.2 87 219 0.3 0.8 1013 0.0000 3.4000
19:03 0.7 -1.1 87 180 0.3 0.8 1013.1 0.0000 3.4000
19:13 0.6 -1.2 87 210 0.3 0.8 1013.2 0.0000 3.4000
19:24 0.6 -1.2 87 206 0.3 0.6 1013.4 0.0000 3.4000
19:33 0.5 -1.2 87 233 0.3 0.8 1013.4 0.0000 3.4000
19:43 0.4 -1.5 86 168 0.3 0.8 1013.2 0.0000 3.4000
19:54 0.4 -1.3 87 270 0.8 1.4 1013.4 0.0000 3.4000
20:04 0.4 -1.5 86 168 0.3 1.9 1013.4 0.0000 3.4000
20:13 0.3 -1.6 86 191 0.3 0.6 1013.5 0.0000 3.4000
20:24 0.3 -1.6 86 225 0.3 0.6 1013.6 0.0000 3.4000
20:34 0.3 -1.6 86 225 0.3 0.8 1013.5 0.0000 3.4000
20:44 0.3 -1.6 86 174 0.3 0.6 1013.5 0.0000 3.4000
20:54 0.3 -1.6 86 203 0.3 1.7 1013.5 0.0000 3.4000
21:04 0.3 -1.6 86 270 0.3 1.7 1013.7 0.0000 3.4000
21:19 0.2 -1.6 86 270 0.3 0.8 1014 0.0000 3.4000
21:29 0.2 -1.8 85 189 0.3 1.4 1013.9 0.0000 3.4000
21:40 0.2 -1.6 86 229 0.3 0.6 1014 0.0000 3.4000
21:49 0.2 -1.8 85 249 0.6 1.4 1014.2 0.0000 3.4000
21:59 0.2 -1.8 85 171 0.3 0.8 1014.3 0.0000 3.4000
22:10 0.1 -1.9 85 229 0.3 0.8 1014.3 0.0000 3.4000
22:20 0 -2 85 174 0.3 1.9 1014.5 0.0000 3.4000
22:29 0 -2 85 153 0.3 0.8 1014.5 0.0000 3.4000
22:39 0 -1.8 86 270 0.6 1.7 1014.7 0.0000 3.4000
22:50 0 -2 85 210 0.3 0.8 1014.7 0.0000 3.4000
23:00 0 -2 85 225 0.3 0.6 1014.9 0.0000 3.4000
23:09 0 -2 85 225 0.3 0.8 1015.1 0.0000 3.4000
23:20 -0.1 -2.1 85 225 0.3 0.8 1015.3 0.0000 3.4000
23:30 -0.2 -2.2 85 235 0.3 0.8 1015.3 0.0000 3.4000
23:40 -0.2 -2.2 85 213 0.3 0.8 1015.2 0.0000 3.4000
23:50 -0.3 -2.3 85 143 0.3 0.8 1014.9 0.0000 3.4000

TAGESSTATISTIK

2019-12-14
TEMPERATUR
MITTEL
-0.6
MAXIMUM
2.6
14:26
MINIMUM
-2.4
01:43
LUFTDRUCK
MITTEL
1007.6
MAXIMUM
1015.3
23:20
MINIMUM
1000.1
02:24
TAUPUNKT
MITTEL
-2.1
MAXIMUM
-0.3
13:52
MINIMUM
-3.5
04:24
FEUCHTIGKEIT
MITTEL
88
MAXIMUM
93
00:03
MINIMUM
79
14:37
WINDSTÄRKE
MITTEL
0.4
MAXIMUM
0.8
11:52
WINDBÖE
MITTEL
1.1
MAXIMUM
2.2
01:43
WINDRICHTUNG
VORHERRSCHENDE
SW
42.9%
N
0.0
NO
0.0
O
4.3
SO
9.3
S
15.7
SW
42.9
W
27.1
NW
0.0
NIEDERSCHLAG
REGEN STUNDE
1.5
REGEN TAG
3.4
TEMPERATUR (°C)
MINIMUM
-2.4
MAXIMUM
2.6
MITTEL
-0.6
LUFTDRUCK (hpa)
MINIMUM
1000.1
MAXIMUM
1015.3
MITTEL
1007.6
MESSGERÄT